createdAt,value
2018-09-24T00:00:56.880Z,0.60
2018-09-24T00:03:23.760Z,0.80
2018-09-24T00:05:50.643Z,0.50
2018-09-24T00:08:17.446Z,1.27
2018-09-24T00:10:44.274Z,0.73
2018-09-24T00:13:11.133Z,0.60
2018-09-24T00:15:37.955Z,0.60
2018-09-24T00:18:04.780Z,0.80
2018-09-24T00:20:31.605Z,0.80
2018-09-24T00:22:58.532Z,0.50
2018-09-24T00:25:25.356Z,0.70
2018-09-24T00:27:52.193Z,0.80
2018-09-24T00:30:19.019Z,0.70
2018-09-24T00:32:45.877Z,0.60
2018-09-24T00:35:12.832Z,0.60
2018-09-24T00:37:39.627Z,0.57
2018-09-24T00:40:06.450Z,0.70
2018-09-24T00:42:33.455Z,0.70
2018-09-24T00:45:00.286Z,0.60
2018-09-24T00:47:27.107Z,0.70
2018-09-24T00:49:53.934Z,0.60
2018-09-24T00:52:20.823Z,0.83
2018-09-24T00:54:47.644Z,0.70
2018-09-24T00:57:14.481Z,0.53
2018-09-24T00:59:41.309Z,0.70
2018-09-24T01:02:08.598Z,0.60
2018-09-24T01:04:35.440Z,0.60
2018-09-24T01:07:02.258Z,0.70
2018-09-24T01:09:29.092Z,0.63
2018-09-24T01:11:56.054Z,0.60
2018-09-24T01:14:22.880Z,0.80
2018-09-24T01:16:49.708Z,0.90
2018-09-24T01:19:17.034Z,0.83
2018-09-24T01:21:44.477Z,0.60
2018-09-24T01:24:11.341Z,0.70
2018-09-24T01:26:38.178Z,0.60
2018-09-24T01:29:05.006Z,0.90
2018-09-24T01:31:32.273Z,0.60
2018-09-24T01:33:59.201Z,0.70
2018-09-24T01:36:26.018Z,0.93
2018-09-24T01:38:52.846Z,0.60
2018-09-24T01:41:19.670Z,0.80
2018-09-24T01:43:46.593Z,0.80
2018-09-24T01:46:13.443Z,0.80
2018-09-24T01:48:40.262Z,0.80
2018-09-24T01:51:07.076Z,0.60
2018-09-24T01:53:33.960Z,0.93
2018-09-24T01:56:00.793Z,0.63
2018-09-24T01:58:27.614Z,0.83
2018-09-24T02:00:54.442Z,0.60
2018-09-24T02:03:21.397Z,0.70
2018-09-24T02:05:48.303Z,0.70
2018-09-24T02:08:15.129Z,0.87
2018-09-24T02:10:41.949Z,0.60
2018-09-24T02:13:08.893Z,0.80
2018-09-24T02:15:35.727Z,0.73
2018-09-24T02:18:02.551Z,0.73
2018-09-24T02:20:29.382Z,0.60
2018-09-24T02:22:56.260Z,0.67
2018-09-24T02:25:23.085Z,0.70
2018-09-24T02:27:49.925Z,0.70
2018-09-24T02:30:16.749Z,0.80
2018-09-24T02:32:43.647Z,0.63
2018-09-24T02:35:10.535Z,0.60
2018-09-24T02:37:37.350Z,0.70
2018-09-24T02:40:04.187Z,0.90
2018-09-24T02:42:31.006Z,0.60
2018-09-24T02:44:57.841Z,1.00
2018-09-24T02:47:24.662Z,0.83
2018-09-24T02:49:51.557Z,0.80
2018-09-24T02:52:18.622Z,1.00
2018-09-24T02:54:45.468Z,0.70
2018-09-24T02:57:12.480Z,0.80
2018-09-24T02:59:39.348Z,0.73
2018-09-24T03:02:06.369Z,1.10
2018-09-24T03:04:33.385Z,0.77
2018-09-24T03:07:00.345Z,0.60
2018-09-24T03:09:27.187Z,0.80
2018-09-24T03:11:55.177Z,0.80
2018-09-24T03:14:22.004Z,0.70
2018-09-24T03:16:49.037Z,0.90
2018-09-24T03:19:15.845Z,0.70
2018-09-24T03:21:42.755Z,0.80
2018-09-24T03:24:09.583Z,0.80
2018-09-24T03:26:36.647Z,0.70
2018-09-24T03:29:03.471Z,0.90
2018-09-24T03:31:30.293Z,0.80
2018-09-24T03:33:57.136Z,0.80
2018-09-24T03:36:23.980Z,0.80
2018-09-24T03:38:50.820Z,0.80
2018-09-24T03:41:17.655Z,0.87
2018-09-24T03:43:44.480Z,1.17
2018-09-24T03:46:11.293Z,0.90
2018-09-24T03:48:38.128Z,1.00
2018-09-24T03:51:04.948Z,0.90
2018-09-24T03:53:31.911Z,0.93
2018-09-24T03:55:58.744Z,1.27
2018-09-24T03:58:25.665Z,1.10
2018-09-24T04:00:52.485Z,1.13
2018-09-24T04:03:20.161Z,1.10
2018-09-24T04:05:47.291Z,0.90
2018-09-24T04:08:14.143Z,0.80
2018-09-24T04:10:41.026Z,1.17
2018-09-24T04:13:07.882Z,1.20
2018-09-24T04:15:34.715Z,0.90
2018-09-24T04:18:01.548Z,1.10
2018-09-24T04:20:28.372Z,0.90
2018-09-24T04:22:55.253Z,0.93
2018-09-24T04:25:22.076Z,1.40
2018-09-24T04:27:48.922Z,1.27
2018-09-24T04:30:15.881Z,1.47
2018-09-24T04:32:42.825Z,1.80
2018-09-24T04:35:09.663Z,1.63
2018-09-24T04:37:36.527Z,1.10
2018-09-24T04:40:03.356Z,1.10
2018-09-24T04:42:30.224Z,1.17
2018-09-24T04:44:57.044Z,1.00
2018-09-24T04:47:23.882Z,1.30
2018-09-24T04:49:50.704Z,1.47
2018-09-24T04:52:17.571Z,1.30
2018-09-24T04:54:44.398Z,0.90
2018-09-24T04:57:11.224Z,1.30
2018-09-24T04:59:38.067Z,1.07
2018-09-24T05:02:04.955Z,1.20
2018-09-24T05:04:31.788Z,1.93
2018-09-24T05:06:58.615Z,1.53
2018-09-24T05:09:25.457Z,1.30
2018-09-24T05:11:52.323Z,1.90
2018-09-24T05:14:19.141Z,1.40
2018-09-24T05:16:45.975Z,1.30
2018-09-24T05:19:12.804Z,1.13
2018-09-24T05:21:39.680Z,1.50
2018-09-24T05:24:06.653Z,1.23
2018-09-24T05:26:33.490Z,1.30
2018-09-24T05:29:00.438Z,1.30
2018-09-24T05:31:27.429Z,1.23
2018-09-24T05:33:54.263Z,1.03
2018-09-24T05:36:21.409Z,1.10
2018-09-24T05:38:48.333Z,1.37
2018-09-24T05:41:15.232Z,1.20
2018-09-24T05:43:42.106Z,1.40
2018-09-24T05:46:08.926Z,1.30
2018-09-24T05:48:35.747Z,1.20
2018-09-24T05:51:02.572Z,1.30
2018-09-24T05:53:29.604Z,1.53
2018-09-24T05:55:56.713Z,1.10
2018-09-24T05:58:23.513Z,1.03
2018-09-24T06:00:50.325Z,1.27
2018-09-24T06:03:17.245Z,1.40
2018-09-24T06:05:44.091Z,1.50
2018-09-24T06:08:10.903Z,0.90
2018-09-24T06:10:37.745Z,1.73
2018-09-24T06:13:04.614Z,1.43
2018-09-24T06:15:31.442Z,1.60
2018-09-24T06:17:58.266Z,1.20
2018-09-24T06:20:25.096Z,1.57
2018-09-24T06:22:51.995Z,1.20
2018-09-24T06:25:18.832Z,1.67
2018-09-24T06:27:45.669Z,1.40
2018-09-24T06:30:12.490Z,1.40
2018-09-24T06:32:39.359Z,1.17
2018-09-24T06:35:06.178Z,1.70
2018-09-24T06:37:33.003Z,1.13
2018-09-24T06:39:59.834Z,1.20
2018-09-24T06:42:26.737Z,1.30
2018-09-24T06:44:53.550Z,1.50
2018-09-24T06:47:20.457Z,1.30
2018-09-24T06:49:47.631Z,1.30
2018-09-24T06:52:15.119Z,1.50
2018-09-24T06:54:41.955Z,1.47
2018-09-24T06:57:08.809Z,1.20
2018-09-24T06:59:35.682Z,1.40
2018-09-24T07:02:02.692Z,1.30
2018-09-24T07:04:29.544Z,1.30
2018-09-24T07:06:56.390Z,1.50
2018-09-24T07:09:23.221Z,1.63
2018-09-24T07:11:50.074Z,1.50
2018-09-24T07:14:16.899Z,1.50
2018-09-24T07:16:43.732Z,2.10
2018-09-24T07:19:10.551Z,1.33
2018-09-24T07:21:37.469Z,1.47
2018-09-24T07:24:04.302Z,1.70
2018-09-24T07:26:31.227Z,1.80
2018-09-24T07:28:58.059Z,1.50
2018-09-24T07:31:24.882Z,1.43
2018-09-24T07:33:51.724Z,1.17
2018-09-24T07:36:18.546Z,1.70
2018-09-24T07:38:45.386Z,1.50
2018-09-24T07:41:12.214Z,1.40
2018-09-24T07:43:39.035Z,1.43
2018-09-24T07:46:05.862Z,1.70
2018-09-24T07:48:32.690Z,2.60
2018-09-24T07:50:59.515Z,1.57
2018-09-24T07:53:26.412Z,1.60
2018-09-24T07:55:53.255Z,1.40
2018-09-24T07:58:20.099Z,1.70
2018-09-24T08:00:46.922Z,1.50
2018-09-24T08:03:13.772Z,1.83
2018-09-24T08:05:40.603Z,1.27
2018-09-24T08:08:07.447Z,1.70
2018-09-24T08:10:34.273Z,1.63
2018-09-24T08:13:01.328Z,1.47
2018-09-24T08:15:27.984Z,1.70
2018-09-24T08:17:54.829Z,1.50
2018-09-24T08:20:21.927Z,1.77
2018-09-24T08:22:48.958Z,1.53
2018-09-24T08:25:15.785Z,1.90
2018-09-24T08:27:42.610Z,1.70
2018-09-24T08:30:10.055Z,1.83
2018-09-24T08:32:36.911Z,1.63
2018-09-24T08:35:03.745Z,2.00
2018-09-24T08:37:30.575Z,1.60
2018-09-24T08:39:57.404Z,1.40
2018-09-24T08:42:24.663Z,1.73
2018-09-24T08:44:51.749Z,2.10
2018-09-24T08:47:18.563Z,1.80
2018-09-24T08:49:45.442Z,1.70
2018-09-24T08:52:12.276Z,1.43
2018-09-24T08:54:39.090Z,1.67
2018-09-24T08:57:06.460Z,1.67
2018-09-24T08:59:33.354Z,1.60
2018-09-24T09:02:00.256Z,1.47
2018-09-24T09:04:27.087Z,1.60
2018-09-24T09:06:53.911Z,1.40
2018-09-24T09:09:20.748Z,1.53
2018-09-24T09:11:47.635Z,1.90
2018-09-24T09:14:14.454Z,1.60
2018-09-24T09:16:41.321Z,1.50
2018-09-24T09:19:08.101Z,1.63
2018-09-24T09:21:35.783Z,1.30
2018-09-24T09:24:02.666Z,1.30
2018-09-24T09:26:29.441Z,1.50
2018-09-24T09:28:56.837Z,1.80
2018-09-24T09:31:23.616Z,1.30
2018-09-24T09:33:50.455Z,2.53
2018-09-24T09:36:17.281Z,1.47
2018-09-24T09:38:44.103Z,1.50
2018-09-24T09:41:11.005Z,1.40
2018-09-24T09:43:37.772Z,1.40
2018-09-24T09:46:04.580Z,1.90
2018-09-24T09:48:31.398Z,1.70
2018-09-24T09:50:58.572Z,1.40
2018-09-24T09:53:25.631Z,1.50
2018-09-24T09:55:52.960Z,1.47
2018-09-24T09:58:19.883Z,1.77
2018-09-24T10:00:46.698Z,1.60
2018-09-24T10:03:13.601Z,1.60
2018-09-24T10:05:40.413Z,1.70
2018-09-24T10:08:07.236Z,1.33
2018-09-24T10:10:34.062Z,1.17
2018-09-24T10:13:00.955Z,1.50
2018-09-24T10:15:28.501Z,1.20
2018-09-24T10:17:55.437Z,1.07
2018-09-24T10:20:22.264Z,1.37
2018-09-24T10:22:49.145Z,1.43
2018-09-24T10:25:22.894Z,1.20
2018-09-24T10:27:49.715Z,1.67
2018-09-24T10:30:16.539Z,1.53
2018-09-24T10:32:43.497Z,1.40
2018-09-24T10:35:10.347Z,1.50
2018-09-24T10:37:37.178Z,1.40
2018-09-24T10:40:04.019Z,1.20
2018-09-24T10:42:30.849Z,1.10
2018-09-24T10:44:57.677Z,1.73
2018-09-24T10:47:24.920Z,0.90
2018-09-24T10:49:51.733Z,1.50
2018-09-24T10:52:18.642Z,1.53
2018-09-24T10:54:45.501Z,2.20
2018-09-24T10:57:12.295Z,1.53
2018-09-24T10:59:39.576Z,2.20
2018-09-24T11:02:06.458Z,1.90
2018-09-24T11:04:33.469Z,1.50
2018-09-24T11:07:00.318Z,1.87
2018-09-24T11:09:27.157Z,1.93
2018-09-24T11:11:54.029Z,1.60
2018-09-24T11:14:20.838Z,1.50
2018-09-24T11:16:47.944Z,1.40
2018-09-24T11:19:14.505Z,1.50
2018-09-24T11:21:41.374Z,1.37
2018-09-24T11:24:08.194Z,1.67
2018-09-24T11:26:35.036Z,1.50
2018-09-24T11:29:01.912Z,1.50
2018-09-24T11:31:28.714Z,1.40
2018-09-24T11:33:55.579Z,1.33
2018-09-24T11:36:22.449Z,1.20
2018-09-24T11:38:49.470Z,1.70
2018-09-24T11:41:16.302Z,1.40
2018-09-24T11:43:43.158Z,1.60
2018-09-24T11:46:09.994Z,1.73
2018-09-24T11:48:36.831Z,1.30
2018-09-24T11:51:03.658Z,1.53
2018-09-24T11:53:30.536Z,1.57
2018-09-24T11:55:57.461Z,1.80
2018-09-24T11:58:24.286Z,1.83
2018-09-24T12:00:51.203Z,1.37
2018-09-24T12:03:18.136Z,1.17
2018-09-24T12:05:44.974Z,1.40
2018-09-24T12:08:11.786Z,1.23
2018-09-24T12:10:38.679Z,1.27
2018-09-24T12:13:05.522Z,1.13
2018-09-24T12:15:32.347Z,1.40
2018-09-24T12:17:59.184Z,1.10
2018-09-24T12:20:26.007Z,1.30
2018-09-24T12:22:52.858Z,1.40
2018-09-24T12:25:19.678Z,1.00
2018-09-24T12:27:46.515Z,1.17
2018-09-24T12:30:13.336Z,1.43
2018-09-24T12:32:40.229Z,1.43
2018-09-24T12:35:07.096Z,0.97
2018-09-24T12:37:33.953Z,1.47
2018-09-24T12:40:00.779Z,1.30
2018-09-24T12:42:27.801Z,0.80
2018-09-24T12:44:54.728Z,1.00
2018-09-24T12:47:22.717Z,0.87
2018-09-24T12:49:49.533Z,1.43
2018-09-24T12:52:16.409Z,0.97
2018-09-24T12:54:43.252Z,1.10
2018-09-24T12:57:10.101Z,1.17
2018-09-24T12:59:36.944Z,1.10
2018-09-24T13:02:03.981Z,1.47
2018-09-24T13:04:30.827Z,1.20
2018-09-24T13:06:57.668Z,1.00
2018-09-24T13:09:24.492Z,1.07
2018-09-24T13:11:51.395Z,1.20
2018-09-24T13:14:18.271Z,1.30
2018-09-24T13:16:45.112Z,1.00
2018-09-24T13:19:12.031Z,0.90
2018-09-24T13:21:38.917Z,1.13
2018-09-24T13:24:05.776Z,1.10
2018-09-24T13:26:32.655Z,0.77
2018-09-24T13:28:59.459Z,1.10
2018-09-24T13:31:26.334Z,1.03
2018-09-24T13:33:53.153Z,1.10
2018-09-24T13:36:19.971Z,1.10
2018-09-24T13:38:46.820Z,1.23
2018-09-24T13:41:13.629Z,0.83
2018-09-24T13:43:40.446Z,0.70
2018-09-24T13:46:07.312Z,1.17
2018-09-24T13:48:34.149Z,1.03
2018-09-24T13:51:00.974Z,1.07
2018-09-24T13:53:27.938Z,1.20
2018-09-24T13:55:54.745Z,0.90
2018-09-24T13:58:21.589Z,1.30
2018-09-24T14:00:48.389Z,0.90
2018-09-24T14:03:15.251Z,0.87
2018-09-24T14:05:42.191Z,1.13
2018-09-24T14:08:09.030Z,1.07
2018-09-24T14:10:35.892Z,0.80
2018-09-24T14:13:02.891Z,1.37
2018-09-24T14:15:29.766Z,1.30
2018-09-24T14:17:56.781Z,1.17
2018-09-24T14:20:23.610Z,1.00
2018-09-24T14:22:50.614Z,0.90
2018-09-24T14:25:17.506Z,1.20
2018-09-24T14:27:44.318Z,0.70
2018-09-24T14:30:11.175Z,1.00
2018-09-24T14:32:38.184Z,1.07
2018-09-24T14:35:05.005Z,1.10
2018-09-24T14:37:31.833Z,0.80
2018-09-24T14:39:58.650Z,0.90
2018-09-24T14:42:25.571Z,0.90
2018-09-24T14:44:52.402Z,1.10
2018-09-24T14:47:19.695Z,1.17
2018-09-24T14:49:46.499Z,1.43
2018-09-24T14:52:13.331Z,1.20
2018-09-24T14:54:40.189Z,1.40
2018-09-24T14:57:07.016Z,2.20
2018-09-24T14:59:33.860Z,1.57
2018-09-24T15:02:00.920Z,1.33
2018-09-24T15:04:27.753Z,2.50
2018-09-24T15:06:54.582Z,2.53
2018-09-24T15:09:21.403Z,3.90
2018-09-24T15:11:48.303Z,2.37
2018-09-24T15:14:15.120Z,2.43
2018-09-24T15:16:41.955Z,2.93
2018-09-24T15:19:08.778Z,2.40
2018-09-24T15:21:35.660Z,2.73
2018-09-24T15:24:02.496Z,2.63
2018-09-24T15:26:29.369Z,2.83
2018-09-24T15:28:56.223Z,2.20
2018-09-24T15:31:23.002Z,1.70
2018-09-24T15:33:49.828Z,2.37
2018-09-24T15:36:16.818Z,2.67
2018-09-24T15:38:43.714Z,1.60
2018-09-24T15:41:10.577Z,1.60
2018-09-24T15:43:37.398Z,1.63
2018-09-24T15:46:04.254Z,1.60
2018-09-24T15:48:31.071Z,1.50
2018-09-24T15:50:57.909Z,1.67
2018-09-24T15:53:24.823Z,1.50
2018-09-24T15:55:51.653Z,1.30
2018-09-24T15:58:18.479Z,1.87
2018-09-24T16:00:45.313Z,1.93
2018-09-24T16:03:12.191Z,1.83
2018-09-24T16:05:39.015Z,1.60
2018-09-24T16:08:05.838Z,1.30
2018-09-24T16:10:32.679Z,1.97
2018-09-24T16:12:59.576Z,1.50
2018-09-24T16:15:26.431Z,1.30
2018-09-24T16:17:53.257Z,1.40
2018-09-24T16:20:20.110Z,1.80
2018-09-24T16:22:46.960Z,1.97
2018-09-24T16:25:13.789Z,1.97
2018-09-24T16:27:40.609Z,1.07
2018-09-24T16:30:07.449Z,1.00
2018-09-24T16:32:34.327Z,0.93
2018-09-24T16:35:01.145Z,1.57
2018-09-24T16:37:28.001Z,1.83
2018-09-24T16:39:54.809Z,2.13
2018-09-24T16:42:21.688Z,1.17
2018-09-24T16:44:48.502Z,1.03
2018-09-24T16:47:15.499Z,1.13
2018-09-24T16:49:42.347Z,0.83
2018-09-24T16:52:09.270Z,1.00
2018-09-24T16:54:36.097Z,1.23
2018-09-24T16:57:02.917Z,1.63
2018-09-24T16:59:29.748Z,0.90
2018-09-24T17:01:56.652Z,1.23
2018-09-24T17:04:23.473Z,1.10
2018-09-24T17:06:50.308Z,0.70
2018-09-24T17:09:17.161Z,0.90
2018-09-24T17:11:44.027Z,0.90
2018-09-24T17:14:10.845Z,1.20
2018-09-24T17:16:37.793Z,1.57
2018-09-24T17:19:04.626Z,1.33
2018-09-24T17:21:31.612Z,1.20
2018-09-24T17:23:58.474Z,1.20
2018-09-24T17:26:25.296Z,1.13
2018-09-24T17:28:52.159Z,1.40
2018-09-24T17:31:19.093Z,1.50
2018-09-24T17:33:45.920Z,1.40
2018-09-24T17:36:12.845Z,1.50
2018-09-24T17:38:39.783Z,1.30
2018-09-24T17:41:06.586Z,1.13
2018-09-24T17:43:33.532Z,2.00
2018-09-24T17:46:00.380Z,2.10
2018-09-24T17:48:27.194Z,1.70
2018-09-24T17:50:54.031Z,3.50
2018-09-24T17:53:21.013Z,2.30
2018-09-24T17:55:47.810Z,2.63
2018-09-24T17:58:14.631Z,2.20
2018-09-24T18:00:41.485Z,2.40
2018-09-24T18:03:12.340Z,1.67
2018-09-24T18:05:39.140Z,1.43
2018-09-24T18:08:05.977Z,1.53
2018-09-24T18:10:32.808Z,2.47
2018-09-24T18:12:59.889Z,1.83
2018-09-24T18:15:26.737Z,1.87
2018-09-24T18:17:53.716Z,1.43
2018-09-24T18:20:20.540Z,1.57
2018-09-24T18:22:47.558Z,1.50
2018-09-24T18:25:14.556Z,1.43
2018-09-24T18:27:41.553Z,1.30
2018-09-24T18:30:08.402Z,1.00
2018-09-24T18:32:35.345Z,1.47
2018-09-24T18:35:02.200Z,1.03
2018-09-24T18:37:29.049Z,1.20
2018-09-24T18:39:55.890Z,1.37
2018-09-24T18:42:22.745Z,1.23
2018-09-24T18:44:49.550Z,1.23
2018-09-24T18:47:16.444Z,1.00
2018-09-24T18:49:43.292Z,1.10
2018-09-24T18:52:10.314Z,1.60
2018-09-24T18:54:37.166Z,1.40
2018-09-24T18:57:03.992Z,1.10
2018-09-24T18:59:30.870Z,1.00
2018-09-24T19:01:57.870Z,1.73
2018-09-24T19:04:24.749Z,1.37
2018-09-24T19:06:51.596Z,1.50
2018-09-24T19:09:18.434Z,1.10
2018-09-24T19:11:45.525Z,1.37
2018-09-24T19:14:12.289Z,1.30
2018-09-24T19:16:39.146Z,1.00
2018-09-24T19:19:05.987Z,1.40
2018-09-24T19:21:33.074Z,0.80
2018-09-24T19:23:59.842Z,1.20
2018-09-24T19:26:26.690Z,0.90
2018-09-24T19:28:53.559Z,1.27
2018-09-24T19:31:20.948Z,1.00
2018-09-24T19:33:47.792Z,1.20
2018-09-24T19:36:14.629Z,1.20
2018-09-24T19:38:41.450Z,1.20
2018-09-24T19:41:08.287Z,1.10
2018-09-24T19:43:35.216Z,1.80
2018-09-24T19:46:02.050Z,1.30
2018-09-24T19:48:28.904Z,1.30
2018-09-24T19:50:55.732Z,1.40
2018-09-24T19:53:22.599Z,1.70
2018-09-24T19:55:49.418Z,0.97
2018-09-24T19:58:16.278Z,1.50
2018-09-24T20:00:43.145Z,1.20
2018-09-24T20:03:09.968Z,1.23
2018-09-24T20:05:36.868Z,1.40
2018-09-24T20:08:03.654Z,1.03
2018-09-24T20:10:30.564Z,1.20
2018-09-24T20:12:57.538Z,1.80
2018-09-24T20:15:24.406Z,1.10
2018-09-24T20:17:51.288Z,1.30
2018-09-24T20:20:18.132Z,1.10
2018-09-24T20:22:45.111Z,1.10
2018-09-24T20:25:11.964Z,1.10
2018-09-24T20:27:38.787Z,1.10
2018-09-24T20:30:05.710Z,1.47
2018-09-24T20:32:32.988Z,1.40
2018-09-24T20:34:59.750Z,1.47
2018-09-24T20:37:26.613Z,1.93
2018-09-24T20:39:53.483Z,1.20
2018-09-24T20:42:20.532Z,1.50
2018-09-24T20:44:47.332Z,1.27
2018-09-24T20:47:14.198Z,1.37
2018-09-24T20:49:41.153Z,0.90
2018-09-24T20:52:08.089Z,1.00
2018-09-24T20:54:34.945Z,1.30
2018-09-24T20:57:01.838Z,1.47
2018-09-24T20:59:28.758Z,1.37
2018-09-24T21:01:55.703Z,1.20
2018-09-24T21:04:22.539Z,1.00
2018-09-24T21:06:49.390Z,1.10
2018-09-24T21:09:16.232Z,1.13
2018-09-24T21:11:43.200Z,0.90
2018-09-24T21:14:10.039Z,0.93
2018-09-24T21:16:36.879Z,0.83
2018-09-24T21:19:03.729Z,1.20
2018-09-24T21:21:30.603Z,1.30
2018-09-24T21:23:57.506Z,1.40
2018-09-24T21:26:24.355Z,1.20
2018-09-24T21:28:51.160Z,1.50
2018-09-24T21:31:17.996Z,1.10
2018-09-24T21:33:44.843Z,1.00
2018-09-24T21:36:11.694Z,1.20
2018-09-24T21:38:38.517Z,1.07
2018-09-24T21:41:05.350Z,1.47
2018-09-24T21:43:32.176Z,1.10
2018-09-24T21:45:59.201Z,1.93
2018-09-24T21:48:25.974Z,1.30
2018-09-24T21:50:52.822Z,1.40
2018-09-24T21:53:19.722Z,1.07
2018-09-24T21:55:46.751Z,1.30
2018-09-24T21:58:13.640Z,1.30
2018-09-24T22:00:40.510Z,1.40
2018-09-24T22:03:07.507Z,1.07
2018-09-24T22:05:34.343Z,1.47
2018-09-24T22:08:01.193Z,1.13
2018-09-24T22:10:28.019Z,1.10
2018-09-24T22:12:55.096Z,1.20
2018-09-24T22:15:21.911Z,1.20
2018-09-24T22:17:48.748Z,1.30
2018-09-24T22:20:15.574Z,1.20
2018-09-24T22:22:42.539Z,1.10
2018-09-24T22:25:09.383Z,1.40
2018-09-24T22:27:36.298Z,1.20
2018-09-24T22:30:03.243Z,0.93
2018-09-24T22:32:30.521Z,1.20
2018-09-24T22:34:57.366Z,1.00
2018-09-24T22:37:24.205Z,0.90
2018-09-24T22:39:51.799Z,0.90
2018-09-24T22:42:18.972Z,0.73
2018-09-24T22:44:45.923Z,1.33
2018-09-24T22:47:13.161Z,1.13
2018-09-24T22:49:39.979Z,0.87
2018-09-24T22:52:06.825Z,1.10
2018-09-24T22:54:33.765Z,1.33
2018-09-24T22:57:00.586Z,0.90
2018-09-24T22:59:27.448Z,1.30
2018-09-24T23:01:54.402Z,1.13
2018-09-24T23:04:21.232Z,1.20
2018-09-24T23:06:48.251Z,1.20
2018-09-24T23:09:15.077Z,1.13
2018-09-24T23:11:41.983Z,1.13
2018-09-24T23:14:08.818Z,1.47
2018-09-24T23:16:35.641Z,0.93
2018-09-24T23:19:02.479Z,0.90
2018-09-24T23:21:29.351Z,1.10
2018-09-24T23:23:56.188Z,1.03
2018-09-24T23:26:23.006Z,1.13
2018-09-24T23:28:49.836Z,1.30
2018-09-24T23:31:16.650Z,1.20
2018-09-24T23:33:43.486Z,1.47
2018-09-24T23:36:10.322Z,1.50
2018-09-24T23:38:37.142Z,0.90
2018-09-24T23:41:03.960Z,1.20
2018-09-24T23:43:30.984Z,1.37
2018-09-24T23:45:57.788Z,1.50
2018-09-24T23:48:24.634Z,1.30
2018-09-24T23:50:51.475Z,0.97
2018-09-24T23:53:18.528Z,1.13
2018-09-24T23:55:45.363Z,1.03
2018-09-24T23:58:12.187Z,1.33
